Time;durP1;ratioP1;P1;durP2;ratioP2;P2;SDS_P1;SDS_P2;PMS_P1;PMS_P2;Temp;Humidity;BMP_temperature;BMP_pressure;BME280_temperature;BME280_humidity;BME280_pressure;Samples;Min_cycle;Max_cycle;Signal;HPM_P1;HPM_P2
2023/12/28 00:00:04;;;;;;;;;;;19.40;60.10;;;;;;5077363;28;19930;-65
2023/12/28 00:02:29;;;;;;;;;;;19.40;60.10;;;;;;5077701;28;19942;-65
2023/12/28 00:04:54;;;;;;;;;;;19.40;60.10;;;;;;5076638;28;19925;-65
2023/12/28 00:07:20;;;;;;;;;;;19.40;60.10;;;;;;5077613;28;19924;-65
2023/12/28 00:09:45;;;;;;;;;;;19.40;60.10;;;;;;5095712;28;19950;-65
2023/12/28 00:12:11;;;;;;;;;;;19.40;60.10;;;;;;5094549;28;19928;-65
2023/12/28 00:14:36;;;;;;;;;;;19.40;60.10;;;;;;5096054;28;19924;-64
2023/12/28 00:17:02;;;;;;;;;;;19.40;60.10;;;;;;5077378;28;19924;-65
2023/12/28 00:19:27;;;;;;;;;;;19.30;60.00;;;;;;5093997;28;19936;-65
2023/12/28 00:21:53;;;;;;;;;;;19.30;60.00;;;;;;5076241;28;19924;-65
2023/12/28 00:24:19;;;;;;;;;;;19.40;60.10;;;;;;5095479;28;20264;-65
2023/12/28 00:26:45;;;;;;;;;;;19.30;60.00;;;;;;5094271;28;19931;-65
2023/12/28 00:29:10;;;;;;;;;;;19.40;60.10;;;;;;5076855;28;19924;-65
2023/12/28 00:31:36;;;;;;;;;;;19.30;60.00;;;;;;5077080;28;20375;-65
2023/12/28 00:34:01;;;;;;;;;;;19.30;60.00;;;;;;5075709;28;19920;-65
2023/12/28 00:36:27;;;;;;;;;;;19.30;60.00;;;;;;5095037;28;19973;-65
2023/12/28 00:38:52;;;;;;;;;;;19.30;60.00;;;;;;5076440;28;20006;-65
2023/12/28 00:41:18;;;;;;;;;;;19.30;60.00;;;;;;5076552;28;19924;-65
2023/12/28 00:43:43;;;;;;;;;;;19.30;60.00;;;;;;5076778;28;19930;-65
2023/12/28 00:46:09;;;;;;;;;;;19.30;60.00;;;;;;5076847;28;19924;-65
2023/12/28 00:48:34;;;;;;;;;;;19.30;60.00;;;;;;5059189;28;19924;-65
2023/12/28 00:51:00;;;;;;;;;;;19.20;59.90;;;;;;5094518;28;19930;-65
2023/12/28 00:53:26;;;;;;;;;;;19.20;59.90;;;;;;5076710;28;19924;-65
2023/12/28 00:55:51;;;;;;;;;;;19.20;59.90;;;;;;5093862;28;20341;-65
2023/12/28 00:58:17;;;;;;;;;;;19.20;59.90;;;;;;5094778;28;20011;-65
2023/12/28 01:00:42;;;;;;;;;;;19.20;59.90;;;;;;5076811;28;19932;-64
2023/12/28 01:03:07;;;;;;;;;;;19.20;59.90;;;;;;5075118;28;19950;-65
2023/12/28 01:05:33;;;;;;;;;;;19.20;59.90;;;;;;5076060;28;19974;-65
2023/12/28 01:07:58;;;;;;;;;;;19.20;59.90;;;;;;5092903;28;19924;-65
2023/12/28 01:10:24;;;;;;;;;;;19.20;59.90;;;;;;5094041;28;19924;-64
2023/12/28 01:12:50;;;;;;;;;;;19.20;59.90;;;;;;5076318;28;20398;-65
2023/12/28 01:15:17;;;;;;;;;;;19.20;60.50;;;;;;5093610;28;19928;-65
2023/12/28 01:17:43;;;;;;;;;;;19.20;59.90;;;;;;5094205;28;19930;-65
2023/12/28 01:20:08;;;;;;;;;;;19.20;59.90;;;;;;5093970;28;19928;-65
2023/12/28 01:22:34;;;;;;;;;;;19.10;59.80;;;;;;5074956;28;20114;-65
2023/12/28 01:24:59;;;;;;;;;;;19.10;59.80;;;;;;5093780;28;19924;-65
2023/12/28 01:27:25;;;;;;;;;;;19.10;59.80;;;;;;5109634;28;20356;-65
2023/12/28 01:29:50;;;;;;;;;;;19.10;59.80;;;;;;5075588;28;19924;-65
2023/12/28 01:32:16;;;;;;;;;;;19.10;59.80;;;;;;5075895;28;20306;-65
2023/12/28 01:34:42;;;;;;;;;;;19.10;59.80;;;;;;5094093;28;19924;-65
2023/12/28 01:37:07;;;;;;;;;;;19.10;59.80;;;;;;5074800;28;19925;-65
2023/12/28 01:39:33;;;;;;;;;;;19.10;59.80;;;;;;5075406;28;19969;-65
2023/12/28 01:41:58;;;;;;;;;;;19.10;59.80;;;;;;5074311;28;19973;-64
2023/12/28 01:44:24;;;;;;;;;;;19.10;59.80;;;;;;5092374;28;19930;-65
2023/12/28 01:46:50;;;;;;;;;;;19.10;59.80;;;;;;5075487;28;19977;-65
2023/12/28 01:49:15;;;;;;;;;;;19.10;59.80;;;;;;5092789;28;19924;-65
2023/12/28 01:51:41;;;;;;;;;;;19.00;59.80;;;;;;5074802;28;20339;-65
2023/12/28 01:54:06;;;;;;;;;;;19.00;59.70;;;;;;5075196;28;19924;-65
2023/12/28 01:56:32;;;;;;;;;;;19.00;59.80;;;;;;5093794;28;20489;-65
2023/12/28 01:58:57;;;;;;;;;;;19.10;59.80;;;;;;5074623;28;19924;-65
2023/12/28 02:01:24;;;;;;;;;;;19.00;59.70;;;;;;5075770;28;20378;-65
2023/12/28 02:03:49;;;;;;;;;;;19.00;59.70;;;;;;5075611;28;19929;-65
2023/12/28 02:06:16;;;;;;;;;;;19.00;59.80;;;;;;5092361;28;20276;-64
2023/12/28 02:08:41;;;;;;;;;;;19.00;59.70;;;;;;5074973;28;20013;-64
2023/12/28 02:11:07;;;;;;;;;;;19.00;59.70;;;;;;5075034;28;19970;-64
2023/12/28 02:13:32;;;;;;;;;;;19.00;59.70;;;;;;5092218;28;20368;-65
2023/12/28 02:16:09;;;;;;;;;;;19.00;59.70;;;;;;5092969;28;19935;-65
2023/12/28 02:18:38;;;;;;;;;;;19.00;59.70;;;;;;5074522;28;20032;-65
2023/12/28 02:21:03;;;;;;;;;;;19.00;59.80;;;;;;5075143;28;19963;-64
2023/12/28 02:23:29;;;;;;;;;;;19.00;59.70;;;;;;5070526;28;19964;-64
2023/12/28 02:25:54;;;;;;;;;;;19.00;59.80;;;;;;5071591;28;19924;-65
2023/12/28 02:28:20;;;;;;;;;;;19.00;59.70;;;;;;5071030;28;19924;-65
2023/12/28 02:30:45;;;;;;;;;;;19.00;59.70;;;;;;5071899;28;19956;-65
2023/12/28 02:33:12;;;;;;;;;;;19.00;59.70;;;;;;5053408;28;19924;-65
2023/12/28 02:35:45;;;;;;;;;;;18.90;59.70;;;;;;5072888;28;20308;-64
2023/12/28 02:38:11;;;;;;;;;;;18.90;59.70;;;;;;5054667;28;20451;-65
2023/12/28 02:40:40;;;;;;;;;;;18.90;59.70;;;;;;5071264;28;19959;-65
2023/12/28 02:43:06;;;;;;;;;;;18.90;59.70;;;;;;5071815;28;19924;-65
2023/12/28 02:45:31;;;;;;;;;;;18.90;59.70;;;;;;5072079;28;19931;-65
2023/12/28 02:47:57;;;;;;;;;;;18.90;59.70;;;;;;5070416;28;20387;-65
2023/12/28 02:50:22;;;;;;;;;;;18.90;59.70;;;;;;5075098;28;20015;-64
2023/12/28 02:52:48;;;;;;;;;;;18.90;59.70;;;;;;5075204;28;20521;-64
2023/12/28 02:55:13;;;;;;;;;;;18.90;59.70;;;;;;5074593;28;19971;-65
2023/12/28 02:57:39;;;;;;;;;;;18.90;59.80;;;;;;5109721;28;20368;-64
2023/12/28 03:00:05;;;;;;;;;;;18.90;59.70;;;;;;5108833;28;19924;-64
2023/12/28 03:02:30;;;;;;;;;;;18.90;59.80;;;;;;5075320;28;20358;-64
2023/12/28 03:04:56;;;;;;;;;;;18.90;59.80;;;;;;5075676;28;19943;-65
2023/12/28 03:07:21;;;;;;;;;;;18.90;59.80;;;;;;5076208;28;20003;-65
2023/12/28 03:09:46;;;;;;;;;;;18.90;59.80;;;;;;5074591;28;19931;-65
2023/12/28 03:12:12;;;;;;;;;;;18.90;59.80;;;;;;5109035;28;20390;-64
2023/12/28 03:14:37;;;;;;;;;;;18.90;59.80;;;;;;5075980;28;19929;-64
2023/12/28 03:17:03;;;;;;;;;;;18.90;59.80;;;;;;5075287;28;19924;-64
2023/12/28 03:19:29;;;;;;;;;;;18.90;59.80;;;;;;5076350;28;20019;-64
2023/12/28 03:21:54;;;;;;;;;;;18.90;59.80;;;;;;5076569;28;19931;-65
2023/12/28 03:24:19;;;;;;;;;;;18.90;59.80;;;;;;5096325;28;19924;-64
2023/12/28 03:26:45;;;;;;;;;;;18.90;59.80;;;;;;5078019;28;19924;-65
2023/12/28 03:29:10;;;;;;;;;;;18.90;59.80;;;;;;5095473;28;19928;-65
2023/12/28 03:31:39;;;;;;;;;;;18.90;59.80;;;;;;5096434;28;19920;-65
2023/12/28 03:34:05;;;;;;;;;;;18.90;59.80;;;;;;5096014;28;19977;-65
2023/12/28 03:36:30;;;;;;;;;;;18.90;59.80;;;;;;5095523;28;19924;-65
2023/12/28 03:38:56;;;;;;;;;;;18.90;59.80;;;;;;5094974;28;19984;-65
2023/12/28 03:41:21;;;;;;;;;;;18.90;59.70;;;;;;5078386;28;19973;-65
2023/12/28 03:43:47;;;;;;;;;;;18.90;59.80;;;;;;5095711;28;19971;-65
2023/12/28 03:46:12;;;;;;;;;;;19.00;59.80;;;;;;5095805;28;19924;-65
2023/12/28 03:48:38;;;;;;;;;;;19.00;59.80;;;;;;5077679;28;19935;-65
2023/12/28 03:51:03;;;;;;;;;;;19.00;59.80;;;;;;5095182;28;20022;-65
2023/12/28 03:53:31;;;;;;;;;;;19.00;59.70;;;;;;5095963;28;20403;-65
2023/12/28 03:55:59;;;;;;;;;;;19.00;59.70;;;;;;5095965;28;19978;-65
2023/12/28 03:58:24;;;;;;;;;;;19.00;59.70;;;;;;5095141;28;20022;-64
2023/12/28 04:00:50;;;;;;;;;;;19.00;59.70;;;;;;5077430;28;20023;-65
2023/12/28 04:03:15;;;;;;;;;;;19.00;59.70;;;;;;5076258;28;20276;-65
2023/12/28 04:05:42;;;;;;;;;;;19.00;59.70;;;;;;5076870;28;19986;-65
2023/12/28 04:08:07;;;;;;;;;;;19.00;59.70;;;;;;5077076;28;19924;-65
2023/12/28 04:10:33;;;;;;;;;;;19.10;59.70;;;;;;5077331;28;19931;-65
2023/12/28 04:12:59;;;;;;;;;;;19.10;59.70;;;;;;5076817;28;19934;-65
2023/12/28 04:15:25;;;;;;;;;;;19.10;59.60;;;;;;5077530;28;20052;-65
2023/12/28 04:17:50;;;;;;;;;;;19.10;59.60;;;;;;5094339;28;19967;-65
2023/12/28 04:20:16;;;;;;;;;;;19.10;59.60;;;;;;5095181;28;20028;-65
2023/12/28 04:22:43;;;;;;;;;;;19.20;59.60;;;;;;5077137;28;19924;-65
2023/12/28 04:25:11;;;;;;;;;;;19.20;59.60;;;;;;5076173;28;19932;-65
2023/12/28 04:27:37;;;;;;;;;;;19.20;59.60;;;;;;5076958;28;19924;-66
2023/12/28 04:30:05;;;;;;;;;;;19.20;59.60;;;;;;5077123;28;19931;-65
2023/12/28 04:32:31;;;;;;;;;;;19.20;59.60;;;;;;5094384;28;19928;-65
2023/12/28 04:34:56;;;;;;;;;;;19.30;59.60;;;;;;5094956;28;19931;-65
2023/12/28 04:37:21;;;;;;;;;;;19.30;59.60;;;;;;5094820;28;19924;-65
2023/12/28 04:39:47;;;;;;;;;;;19.30;59.50;;;;;;5076312;28;20458;-65
2023/12/28 04:42:12;;;;;;;;;;;19.30;59.50;;;;;;5076665;28;19924;-65
2023/12/28 04:44:38;;;;;;;;;;;19.30;59.50;;;;;;5076630;28;19928;-65
2023/12/28 04:47:04;;;;;;;;;;;19.40;59.60;;;;;;5076075;28;20375;-65
2023/12/28 04:49:29;;;;;;;;;;;19.40;59.60;;;;;;5076506;28;20471;-65
2023/12/28 04:51:55;;;;;;;;;;;19.40;59.50;;;;;;5076228;28;20329;-65
2023/12/28 04:54:21;;;;;;;;;;;19.40;59.50;;;;;;5093804;28;19924;-64
2023/12/28 04:56:46;;;;;;;;;;;19.40;59.50;;;;;;5076689;28;20307;-65
2023/12/28 04:59:12;;;;;;;;;;;19.40;59.50;;;;;;5075306;28;20395;-65
2023/12/28 05:01:41;;;;;;;;;;;19.50;59.50;;;;;;5109447;28;20383;-65
2023/12/28 05:04:06;;;;;;;;;;;19.50;59.50;;;;;;5090640;28;20400;-65
2023/12/28 05:06:32;;;;;;;;;;;19.50;59.50;;;;;;5073931;28;19920;-65
2023/12/28 05:08:57;;;;;;;;;;;19.50;59.40;;;;;;5055727;28;20045;-64
2023/12/28 05:11:23;;;;;;;;;;;19.50;59.50;;;;;;5074366;28;20291;-64
2023/12/28 05:13:48;;;;;;;;;;;19.50;59.50;;;;;;5088932;28;20296;-64
2023/12/28 05:16:14;;;;;;;;;;;19.50;59.40;;;;;;5073172;28;19931;-65
2023/12/28 05:18:39;;;;;;;;;;;19.50;59.40;;;;;;5056289;28;19924;-65
2023/12/28 05:21:05;;;;;;;;;;;19.50;59.40;;;;;;5088693;28;19970;-65
2023/12/28 05:23:30;;;;;;;;;;;19.50;59.40;;;;;;5052846;28;20399;-65
2023/12/28 05:25:56;;;;;;;;;;;19.50;59.30;;;;;;5053773;28;19925;-65
2023/12/28 05:28:21;;;;;;;;;;;19.60;59.40;;;;;;5068497;28;20410;-65
2023/12/28 05:30:47;;;;;;;;;;;19.60;59.40;;;;;;5053991;28;19979;-65
2023/12/28 05:33:12;;;;;;;;;;;19.60;59.40;;;;;;5052299;28;20407;-65
2023/12/28 05:35:38;;;;;;;;;;;19.60;60.00;;;;;;5052064;28;19974;-65
2023/12/28 05:38:04;;;;;;;;;;;19.60;59.30;;;;;;5053448;28;19925;-65
2023/12/28 05:40:30;;;;;;;;;;;19.60;59.30;;;;;;5052852;28;19995;-65
2023/12/28 05:42:55;;;;;;;;;;;19.60;59.30;;;;;;5052837;28;20335;-65
2023/12/28 05:45:21;;;;;;;;;;;19.60;59.30;;;;;;5069156;28;19921;-65
2023/12/28 05:47:46;;;;;;;;;;;19.60;59.30;;;;;;5052072;28;19951;-64
2023/12/28 05:50:12;;;;;;;;;;;19.60;59.30;;;;;;5051493;28;19925;-65
2023/12/28 05:52:37;;;;;;;;;;;19.70;59.30;;;;;;5053778;28;19931;-65
2023/12/28 05:55:04;;;;;;;;;;;19.70;59.30;;;;;;5052319;28;20016;-65
2023/12/28 05:57:30;;;;;;;;;;;19.70;59.30;;;;;;5051739;28;19935;-64
2023/12/28 05:59:56;;;;;;;;;;;19.70;59.30;;;;;;5051714;28;19925;-65
2023/12/28 06:02:22;;;;;;;;;;;19.70;59.30;;;;;;5052171;28;19932;-65
2023/12/28 06:04:47;;;;;;;;;;;19.70;59.30;;;;;;5052633;28;19932;-65
2023/12/28 06:07:13;;;;;;;;;;;19.70;59.30;;;;;;5066165;28;19924;-65
2023/12/28 06:09:38;;;;;;;;;;;19.70;59.30;;;;;;5072014;28;20277;-65
2023/12/28 06:12:04;;;;;;;;;;;19.70;59.30;;;;;;5071852;28;20354;-65
2023/12/28 06:14:30;;;;;;;;;;;19.70;59.30;;;;;;5072152;28;19924;-65
2023/12/28 06:16:55;;;;;;;;;;;19.70;59.30;;;;;;5072999;28;19925;-65
2023/12/28 06:19:21;;;;;;;;;;;19.70;59.30;;;;;;5071039;28;20393;-65
2023/12/28 06:21:47;;;;;;;;;;;19.70;59.20;;;;;;5072073;28;19924;-65
2023/12/28 06:24:13;;;;;;;;;;;19.70;59.20;;;;;;5074403;28;19932;-64
2023/12/28 06:26:42;;;;;;;;;;;19.80;59.30;;;;;;5072848;28;20393;-65
2023/12/28 06:29:08;;;;;;;;;;;19.80;59.30;;;;;;5074660;28;20279;-65
2023/12/28 06:31:35;;;;;;;;;;;19.80;59.20;;;;;;5073922;28;19930;-65
2023/12/28 06:34:04;;;;;;;;;;;19.80;59.20;;;;;;5074693;28;19926;-65
2023/12/28 06:36:30;;;;;;;;;;;19.80;59.20;;;;;;5093090;28;19924;-65
2023/12/28 06:38:56;;;;;;;;;;;19.80;59.20;;;;;;5091923;28;19977;-65
2023/12/28 06:41:21;;;;;;;;;;;19.80;59.20;;;;;;5092930;28;19924;-65
2023/12/28 06:43:47;;;;;;;;;;;19.80;59.20;;;;;;5074747;28;20359;-65
2023/12/28 06:46:12;;;;;;;;;;;19.80;59.20;;;;;;5073913;28;19977;-65
2023/12/28 06:48:40;;;;;;;;;;;19.80;59.20;;;;;;5074808;28;20395;-65
2023/12/28 06:51:18;;;;;;;;;;;19.80;59.20;;;;;;5091928;28;20007;-64
2023/12/28 06:53:44;;;;;;;;;;;19.80;59.20;;;;;;5092253;28;20001;-65
2023/12/28 06:56:09;;;;;;;;;;;19.80;59.20;;;;;;5074568;28;20375;-65
2023/12/28 06:58:35;;;;;;;;;;;19.80;59.20;;;;;;5074908;28;19924;-65
2023/12/28 07:01:02;;;;;;;;;;;19.80;59.10;;;;;;5091798;28;20450;-64
2023/12/28 07:03:30;;;;;;;;;;;19.80;59.10;;;;;;5075062;28;20015;-63
2023/12/28 07:05:55;;;;;;;;;;;19.80;59.10;;;;;;5074524;28;19924;-65
2023/12/28 07:08:21;;;;;;;;;;;19.80;59.10;;;;;;5073894;28;19925;-64
2023/12/28 07:10:46;;;;;;;;;;;19.80;59.10;;;;;;5075128;28;20279;-65
2023/12/28 07:13:12;;;;;;;;;;;19.80;59.10;;;;;;5074855;28;19928;-65
2023/12/28 07:15:37;;;;;;;;;;;19.80;59.20;;;;;;5092085;28;20284;-64
2023/12/28 07:18:03;;;;;;;;;;;19.90;59.10;;;;;;5074324;28;20064;-71
2023/12/28 07:20:28;;;;;;;;;;;19.90;59.30;;;;;;5074570;28;20411;-63
2023/12/28 07:22:54;;;;;;;;;;;19.90;59.30;;;;;;5091128;28;20406;-62
2023/12/28 07:25:19;;;;;;;;;;;19.90;59.50;;;;;;5108442;28;19969;-63
2023/12/28 07:27:45;;;;;;;;;;;19.90;59.50;;;;;;5092582;28;19924;-64
2023/12/28 07:30:11;;;;;;;;;;;19.90;59.60;;;;;;5091550;28;19932;-64
2023/12/28 07:32:36;;;;;;;;;;;19.90;59.70;;;;;;5092391;28;19920;-64
2023/12/28 07:35:02;;;;;;;;;;;19.90;59.70;;;;;;5091679;28;19924;-62
2023/12/28 07:37:27;;;;;;;;;;;19.90;59.80;;;;;;5074202;28;20404;-63
2023/12/28 07:39:53;;;;;;;;;;;19.90;59.90;;;;;;5075786;28;19928;-62
2023/12/28 07:42:18;;;;;;;;;;;19.90;59.90;;;;;;5075438;28;19920;-61
2023/12/28 07:44:44;;;;;;;;;;;20.00;60.00;;;;;;5058045;28;19925;-62
2023/12/28 07:47:09;;;;;;;;;;;20.00;60.00;;;;;;5058108;28;19924;-63
2023/12/28 07:49:35;;;;;;;;;;;20.00;60.00;;;;;;5060378;28;19924;-62
2023/12/28 07:52:00;;;;;;;;;;;20.00;60.10;;;;;;5057607;28;19927;-61
2023/12/28 07:54:26;;;;;;;;;;;20.00;60.10;;;;;;5075644;28;19931;-62
2023/12/28 07:56:51;;;;;;;;;;;20.00;60.10;;;;;;5074801;28;19924;-61
2023/12/28 07:59:17;;;;;;;;;;;20.00;60.00;;;;;;5085297;28;19969;-63
2023/12/28 08:01:42;;;;;;;;;;;20.00;59.90;;;;;;5077610;28;19920;-62
2023/12/28 08:04:08;;;;;;;;;;;20.10;60.00;;;;;;5107256;28;19924;-62
2023/12/28 08:06:33;;;;;;;;;;;20.00;59.80;;;;;;5110565;28;19970;-63
2023/12/28 08:09:00;;;;;;;;;;;20.00;59.80;;;;;;5076611;28;20030;-63
2023/12/28 08:11:29;;;;;;;;;;;20.10;59.80;;;;;;5076334;28;19931;-63
2023/12/28 08:13:54;;;;;;;;;;;20.10;59.80;;;;;;5058806;28;19924;-64
2023/12/28 08:16:20;;;;;;;;;;;20.10;59.80;;;;;;5057556;28;19932;-63
2023/12/28 08:18:45;;;;;;;;;;;20.10;59.70;;;;;;5085979;28;19946;-63
2023/12/28 08:21:11;;;;;;;;;;;20.10;59.70;;;;;;5095158;28;20339;-64
2023/12/28 08:23:36;;;;;;;;;;;20.10;59.80;;;;;;5094623;28;20387;-70
2023/12/28 08:26:02;;;;;;;;;;;20.10;59.80;;;;;;5056616;28;20011;-63
2023/12/28 08:28:28;;;;;;;;;;;20.10;59.90;;;;;;5075353;28;19925;-63
2023/12/28 08:30:54;;;;;;;;;;;20.10;60.00;;;;;;5057083;28;19931;-62
2023/12/28 08:33:20;;;;;;;;;;;20.10;60.00;;;;;;5056161;28;19936;-63
2023/12/28 08:35:45;;;;;;;;;;;20.10;60.00;;;;;;5074963;28;19924;-61
2023/12/28 08:38:11;;;;;;;;;;;20.10;60.00;;;;;;5088823;28;20457;-61
2023/12/28 08:40:36;;;;;;;;;;;20.10;60.10;;;;;;5098522;28;19925;-61
2023/12/28 08:43:02;;;;;;;;;;;20.10;60.10;;;;;;5074819;28;20018;-60
2023/12/28 08:45:27;;;;;;;;;;;20.10;60.20;;;;;;5094370;28;20356;-60
2023/12/28 08:47:53;;;;;;;;;;;20.10;60.20;;;;;;5075270;28;20073;-60
2023/12/28 08:50:18;;;;;;;;;;;20.10;60.20;;;;;;5076613;28;19931;-60
2023/12/28 08:52:44;;;;;;;;;;;20.20;60.30;;;;;;5093938;28;19980;-60
2023/12/28 08:55:09;;;;;;;;;;;20.20;60.30;;;;;;5076363;28;19964;-60
2023/12/28 08:57:35;;;;;;;;;;;20.20;60.20;;;;;;5094805;28;19931;-61
2023/12/28 09:00:02;;;;;;;;;;;20.20;60.20;;;;;;5075783;28;19928;-61
2023/12/28 09:02:28;;;;;;;;;;;20.10;60.10;;;;;;5076594;28;20417;-61
2023/12/28 09:04:54;;;;;;;;;;;20.10;60.80;;;;;;5076122;28;19924;-61
2023/12/28 09:07:19;;;;;;;;;;;20.20;60.30;;;;;;5075071;28;19935;-60
2023/12/28 09:09:45;;;;;;;;;;;20.20;60.30;;;;;;5076119;28;19924;-60
2023/12/28 09:12:11;;;;;;;;;;;20.20;60.30;;;;;;5094287;28;20403;-60
2023/12/28 09:14:36;;;;;;;;;;;20.20;60.30;;;;;;5093593;28;20007;-60
2023/12/28 09:17:02;;;;;;;;;;;20.10;60.20;;;;;;5075773;28;19977;-60
2023/12/28 09:19:27;;;;;;;;;;;20.10;60.30;;;;;;5094470;28;20391;-59
2023/12/28 09:21:53;;;;;;;;;;;20.10;60.30;;;;;;5074861;28;19924;-61
2023/12/28 09:24:18;;;;;;;;;;;20.10;60.30;;;;;;5074803;28;19963;-60
2023/12/28 09:26:44;;;;;;;;;;;20.10;60.20;;;;;;5075848;28;19931;-62
2023/12/28 09:29:09;;;;;;;;;;;20.10;60.20;;;;;;5075070;28;20018;-61
2023/12/28 09:31:35;;;;;;;;;;;20.10;60.30;;;;;;5075431;28;19932;-62
2023/12/28 09:34:00;;;;;;;;;;;20.10;60.40;;;;;;5074267;28;19971;-63
2023/12/28 09:36:26;;;;;;;;;;;20.10;60.40;;;;;;5074630;28;19931;-62
2023/12/28 09:38:51;;;;;;;;;;;20.10;60.40;;;;;;5075460;28;19924;-64
2023/12/28 09:41:17;;;;;;;;;;;20.10;60.30;;;;;;5073379;28;19924;-64
2023/12/28 09:43:50;;;;;;;;;;;20.10;60.20;;;;;;5057613;28;19924;-61
2023/12/28 09:46:15;;;;;;;;;;;20.10;60.20;;;;;;5075005;28;19963;-62
2023/12/28 09:48:41;;;;;;;;;;;20.10;60.10;;;;;;5074581;28;20033;-62
2023/12/28 09:51:09;;;;;;;;;;;20.10;60.10;;;;;;5074002;28;20023;-63
2023/12/28 09:53:35;;;;;;;;;;;20.10;60.10;;;;;;5075281;28;19971;-64
2023/12/28 09:56:00;;;;;;;;;;;20.10;60.10;;;;;;5057624;28;19920;-63
2023/12/28 09:58:27;;;;;;;;;;;20.10;60.30;;;;;;5075673;28;20526;-63
2023/12/28 10:00:53;;;;;;;;;;;20.10;60.30;;;;;;5058102;28;19924;-62
2023/12/28 10:03:19;;;;;;;;;;;20.10;60.40;;;;;;5073195;28;19930;-62
2023/12/28 10:05:45;;;;;;;;;;;20.10;60.40;;;;;;5109234;28;19920;-62
2023/12/28 10:08:11;;;;;;;;;;;20.10;60.50;;;;;;5093209;28;19924;-62
2023/12/28 10:10:36;;;;;;;;;;;20.10;60.40;;;;;;5074794;28;19954;-61
2023/12/28 10:13:02;;;;;;;;;;;20.10;60.50;;;;;;5074821;28;19924;-62
2023/12/28 10:15:28;;;;;;;;;;;20.10;60.20;;;;;;5075150;28;19924;-62
2023/12/28 10:17:53;;;;;;;;;;;20.00;60.00;;;;;;5074289;28;19947;-61
2023/12/28 10:20:19;;;;;;;;;;;20.00;59.70;;;;;;5075100;28;19931;-62
2023/12/28 10:22:44;;;;;;;;;;;20.00;59.70;;;;;;5075174;28;20268;-62
2023/12/28 10:25:10;;;;;;;;;;;20.00;59.80;;;;;;5073280;28;20393;-62
2023/12/28 10:27:40;;;;;;;;;;;20.00;59.80;;;;;;5058208;28;20367;-67
2023/12/28 10:30:06;;;;;;;;;;;20.00;59.70;;;;;;5074220;28;19970;-61
2023/12/28 10:32:32;;;;;;;;;;;20.00;59.90;;;;;;5091860;28;19924;-61
2023/12/28 10:34:58;;;;;;;;;;;20.00;59.90;;;;;;5092546;28;19924;-61
2023/12/28 10:37:23;;;;;;;;;;;20.00;60.00;;;;;;5093020;28;20375;-61
2023/12/28 10:39:51;;;;;;;;;;;20.00;60.00;;;;;;5092266;28;19924;-64
2023/12/28 10:42:21;;;;;;;;;;;20.00;60.10;;;;;;5075029;28;19924;-63
2023/12/28 10:44:47;;;;;;;;;;;20.00;60.20;;;;;;5074200;28;19959;-64
2023/12/28 10:47:15;;;;;;;;;;;20.00;60.30;;;;;;5057535;28;19971;-67
2023/12/28 10:49:41;;;;;;;;;;;20.00;60.40;;;;;;5073835;28;19924;-64
2023/12/28 10:52:06;;;;;;;;;;;20.00;60.70;;;;;;5073543;28;20023;-63
2023/12/28 10:54:38;;;;;;;;;;;20.00;60.90;;;;;;5058458;28;20102;-62
2023/12/28 10:57:03;;;;;;;;;;;20.00;61.00;;;;;;5092582;28;19931;-62
2023/12/28 10:59:35;;;;;;;;;;;20.00;61.00;;;;;;5107954;28;19932;-64
2023/12/28 11:02:01;;;;;;;;;;;20.00;61.10;;;;;;5057166;28;19967;-64
2023/12/28 11:04:32;;;;;;;;;;;20.00;61.10;;;;;;5074573;28;20013;-65
2023/12/28 11:06:58;;;;;;;;;;;20.00;61.20;;;;;;5073678;28;19924;-62
2023/12/28 11:09:23;;;;;;;;;;;20.00;61.20;;;;;;5074377;28;19935;-62
2023/12/28 11:11:49;;;;;;;;;;;20.00;61.20;;;;;;5092864;28;19924;-63
2023/12/28 11:14:14;;;;;;;;;;;20.00;61.20;;;;;;5060880;28;19970;-63
2023/12/28 11:16:41;;;;;;;;;;;20.00;61.30;;;;;;5062183;28;19934;-63
2023/12/28 11:19:07;;;;;;;;;;;20.00;61.30;;;;;;5100430;28;20015;-62
2023/12/28 11:21:32;;;;;;;;;;;20.00;61.60;;;;;;5057382;28;19924;-63
2023/12/28 11:23:58;;;;;;;;;;;19.90;61.40;;;;;;5085480;28;19950;-62
2023/12/28 11:26:23;;;;;;;;;;;19.90;61.30;;;;;;5096759;28;19971;-62
2023/12/28 11:28:51;;;;;;;;;;;19.90;61.20;;;;;;5075019;28;19925;-62
2023/12/28 11:31:17;;;;;;;;;;;19.90;61.20;;;;;;5041134;28;19985;-62
2023/12/28 11:33:46;;;;;;;;;;;19.90;61.10;;;;;;5075263;28;19925;-62
2023/12/28 11:36:12;;;;;;;;;;;19.90;61.10;;;;;;5074536;28;19932;-62
2023/12/28 11:38:38;;;;;;;;;;;19.90;61.10;;;;;;5042042;28;19932;-62
2023/12/28 11:41:03;;;;;;;;;;;19.90;61.10;;;;;;5057144;28;19924;-62
2023/12/28 11:43:33;;;;;;;;;;;19.90;61.10;;;;;;5076067;28;19951;-62
2023/12/28 11:45:58;;;;;;;;;;;19.90;61.10;;;;;;5072159;28;19931;-68
2023/12/28 11:48:25;;;;;;;;;;;19.90;61.00;;;;;;5093697;28;19924;-62
2023/12/28 11:50:52;;;;;;;;;;;19.90;61.00;;;;;;5095662;28;19931;-64
2023/12/28 11:53:18;;;;;;;;;;;19.90;61.00;;;;;;5061078;28;20303;-64
2023/12/28 11:55:43;;;;;;;;;;;19.90;61.00;;;;;;5060483;28;19954;-63
2023/12/28 11:58:09;;;;;;;;;;;19.90;61.10;;;;;;5077464;28;19928;-64
2023/12/28 12:00:34;;;;;;;;;;;19.90;61.80;;;;;;5095819;28;19928;-64
2023/12/28 12:03:00;;;;;;;;;;;19.80;61.20;;;;;;5077248;28;19963;-65
2023/12/28 12:05:25;;;;;;;;;;;19.80;61.10;;;;;;5077183;28;19924;-64
2023/12/28 12:07:51;;;;;;;;;;;19.80;61.10;;;;;;5077122;28;20064;-64
2023/12/28 12:10:16;;;;;;;;;;;19.80;61.20;;;;;;5075756;28;20368;-62
2023/12/28 12:12:42;;;;;;;;;;;19.80;61.20;;;;;;5095213;28;19924;-63
2023/12/28 12:15:08;;;;;;;;;;;19.80;61.20;;;;;;5075285;28;20382;-63
2023/12/28 12:17:33;;;;;;;;;;;19.80;61.30;;;;;;5074538;28;19924;-63
2023/12/28 12:19:59;;;;;;;;;;;19.80;61.30;;;;;;5057486;28;19924;-62
2023/12/28 12:22:25;;;;;;;;;;;19.80;61.30;;;;;;5103065;28;20417;-62
2023/12/28 12:24:50;;;;;;;;;;;19.80;61.40;;;;;;5075080;28;19966;-62
2023/12/28 12:27:17;;;;;;;;;;;19.80;61.40;;;;;;5059646;28;19956;-62
2023/12/28 12:29:42;;;;;;;;;;;19.90;61.40;;;;;;5076123;28;19924;-62
2023/12/28 12:32:08;;;;;;;;;;;19.90;61.50;;;;;;5100884;28;19924;-64
2023/12/28 12:34:33;;;;;;;;;;;19.90;61.40;;;;;;5102715;28;19924;-63
2023/12/28 12:37:00;;;;;;;;;;;19.90;61.50;;;;;;5093937;28;19923;-63
2023/12/28 12:39:25;;;;;;;;;;;19.90;61.40;;;;;;5058921;28;19978;-63
2023/12/28 12:41:51;;;;;;;;;;;19.90;61.40;;;;;;5093537;28;19924;-63
2023/12/28 12:44:19;;;;;;;;;;;19.90;61.40;;;;;;5059030;28;19971;-63
2023/12/28 12:46:44;;;;;;;;;;;19.90;61.30;;;;;;5094755;28;20379;-63
2023/12/28 12:49:10;;;;;;;;;;;19.90;61.30;;;;;;5075979;28;19943;-63
2023/12/28 12:51:35;;;;;;;;;;;19.90;61.30;;;;;;5093768;28;20073;-63
2023/12/28 12:54:02;;;;;;;;;;;19.90;61.30;;;;;;5101745;28;19931;-63
2023/12/28 12:56:28;;;;;;;;;;;19.90;61.30;;;;;;5076451;28;19949;-63
2023/12/28 12:58:57;;;;;;;;;;;20.00;61.30;;;;;;5075519;28;20035;-62
2023/12/28 13:01:25;;;;;;;;;;;20.00;61.30;;;;;;5101612;28;19924;-62
2023/12/28 13:03:51;;;;;;;;;;;20.00;61.30;;;;;;5073657;28;19928;-62
2023/12/28 13:06:16;;;;;;;;;;;20.00;61.30;;;;;;5075518;28;19924;-63
2023/12/28 13:08:42;;;;;;;;;;;20.00;61.30;;;;;;5091038;28;20343;-65
2023/12/28 13:11:07;;;;;;;;;;;20.00;61.30;;;;;;5074058;28;20004;-65
2023/12/28 13:13:33;;;;;;;;;;;20.00;61.20;;;;;;5073621;28;19972;-65
2023/12/28 13:15:59;;;;;;;;;;;20.00;61.20;;;;;;5073889;28;19924;-66
2023/12/28 13:18:24;;;;;;;;;;;20.00;61.10;;;;;;5089730;28;20053;-65
2023/12/28 13:20:49;;;;;;;;;;;20.00;61.10;;;;;;5073419;28;19929;-65
2023/12/28 13:23:15;;;;;;;;;;;20.00;61.10;;;;;;5089376;28;20434;-65
2023/12/28 13:25:41;;;;;;;;;;;20.00;61.10;;;;;;5089710;28;19924;-65
2023/12/28 13:28:06;;;;;;;;;;;20.00;61.10;;;;;;5088590;28;19947;-66
2023/12/28 13:30:32;;;;;;;;;;;20.10;61.10;;;;;;5089616;28;19967;-66
2023/12/28 13:33:00;;;;;;;;;;;20.10;61.20;;;;;;5073215;28;20312;-65
2023/12/28 13:35:25;;;;;;;;;;;20.10;61.10;;;;;;5072077;28;19960;-65
2023/12/28 13:37:51;;;;;;;;;;;20.10;61.20;;;;;;5089400;28;19982;-65
2023/12/28 13:40:16;;;;;;;;;;;20.10;61.10;;;;;;5089234;28;19929;-65
2023/12/28 13:42:42;;;;;;;;;;;20.10;61.10;;;;;;5073022;28;19924;-66
2023/12/28 13:45:07;;;;;;;;;;;20.10;61.20;;;;;;5089405;28;19928;-65
2023/12/28 13:47:33;;;;;;;;;;;20.10;61.20;;;;;;5072835;28;20360;-65
2023/12/28 13:49:58;;;;;;;;;;;20.10;61.20;;;;;;5088275;28;19962;-66
2023/12/28 13:52:24;;;;;;;;;;;20.10;61.10;;;;;;5083774;28;19924;-65
2023/12/28 13:54:49;;;;;;;;;;;20.10;61.10;;;;;;5074320;28;19964;-65
2023/12/28 13:57:15;;;;;;;;;;;20.10;61.10;;;;;;5075705;28;19979;-66
2023/12/28 13:59:40;;;;;;;;;;;20.10;61.20;;;;;;5078249;28;20322;-65
2023/12/28 14:02:06;;;;;;;;;;;20.10;61.10;;;;;;5074515;28;19965;-65
2023/12/28 14:04:31;;;;;;;;;;;20.10;61.00;;;;;;5075694;28;19924;-65
2023/12/28 14:06:57;;;;;;;;;;;20.10;61.10;;;;;;5075468;28;19984;-65